sensor_id;sensor_type;location;lat;lon;timestamp;P1;durP1;ratioP1;P2;durP2;ratioP2
13425;SDS011;6785;57.918;12.530;2022-08-19T00:01:17;15.43;;;13.90;;
13425;SDS011;6785;57.918;12.530;2022-08-19T00:03:44;16.07;;;14.27;;
13425;SDS011;6785;57.918;12.530;2022-08-19T00:06:13;15.60;;;14.10;;
13425;SDS011;6785;57.918;12.530;2022-08-19T00:08:40;24.37;;;16.20;;
13425;SDS011;6785;57.918;12.530;2022-08-19T00:11:07;61.57;;;17.73;;
13425;SDS011;6785;57.918;12.530;2022-08-19T00:13:34;56.07;;;19.97;;
13425;SDS011;6785;57.918;12.530;2022-08-19T00:16:02;38.53;;;18.27;;
13425;SDS011;6785;57.918;12.530;2022-08-19T00:18:31;60.23;;;20.40;;
13425;SDS011;6785;57.918;12.530;2022-08-19T00:20:58;99.07;;;21.53;;
13425;SDS011;6785;57.918;12.530;2022-08-19T00:23:26;47.20;;;18.80;;
13425;SDS011;6785;57.918;12.530;2022-08-19T00:25:53;56.47;;;19.00;;
13425;SDS011;6785;57.918;12.530;2022-08-19T00:28:20;57.43;;;18.77;;
13425;SDS011;6785;57.918;12.530;2022-08-19T00:30:47;34.87;;;17.80;;
13425;SDS011;6785;57.918;12.530;2022-08-19T00:33:14;40.57;;;19.20;;
13425;SDS011;6785;57.918;12.530;2022-08-19T00:35:41;28.90;;;17.60;;
13425;SDS011;6785;57.918;12.530;2022-08-19T00:38:08;43.77;;;19.17;;
13425;SDS011;6785;57.918;12.530;2022-08-19T00:40:36;28.33;;;19.87;;
13425;SDS011;6785;57.918;12.530;2022-08-19T00:43:07;24.23;;;17.67;;
13425;SDS011;6785;57.918;12.530;2022-08-19T00:45:35;43.73;;;18.77;;
13425;SDS011;6785;57.918;12.530;2022-08-19T00:48:02;43.87;;;18.60;;
13425;SDS011;6785;57.918;12.530;2022-08-19T00:50:29;49.77;;;19.30;;
13425;SDS011;6785;57.918;12.530;2022-08-19T00:52:57;46.87;;;19.67;;
13425;SDS011;6785;57.918;12.530;2022-08-19T00:55:26;30.80;;;18.23;;
13425;SDS011;6785;57.918;12.530;2022-08-19T00:57:56;26.03;;;17.97;;
13425;SDS011;6785;57.918;12.530;2022-08-19T01:00:28;21.23;;;16.87;;
13425;SDS011;6785;57.918;12.530;2022-08-19T01:02:56;22.03;;;17.63;;
13425;SDS011;6785;57.918;12.530;2022-08-19T01:05:24;27.67;;;17.27;;
13425;SDS011;6785;57.918;12.530;2022-08-19T01:07:54;36.47;;;18.50;;
13425;SDS011;6785;57.918;12.530;2022-08-19T01:10:23;35.30;;;17.43;;
13425;SDS011;6785;57.918;12.530;2022-08-19T01:12:52;29.70;;;16.50;;
13425;SDS011;6785;57.918;12.530;2022-08-19T01:15:24;31.57;;;16.57;;
13425;SDS011;6785;57.918;12.530;2022-08-19T01:17:55;73.20;;;17.57;;
13425;SDS011;6785;57.918;12.530;2022-08-19T01:20:23;26.10;;;15.57;;
13425;SDS011;6785;57.918;12.530;2022-08-19T01:22:53;36.87;;;16.80;;
13425;SDS011;6785;57.918;12.530;2022-08-19T01:25:22;35.90;;;17.00;;
13425;SDS011;6785;57.918;12.530;2022-08-19T01:27:52;27.43;;;15.33;;
13425;SDS011;6785;57.918;12.530;2022-08-19T01:30:21;93.80;;;20.17;;
13425;SDS011;6785;57.918;12.530;2022-08-19T01:32:50;71.13;;;18.80;;
13425;SDS011;6785;57.918;12.530;2022-08-19T01:35:19;110.00;;;21.90;;
13425;SDS011;6785;57.918;12.530;2022-08-19T01:37:49;54.83;;;17.97;;
13425;SDS011;6785;57.918;12.530;2022-08-19T01:40:20;32.73;;;16.03;;
13425;SDS011;6785;57.918;12.530;2022-08-19T01:42:47;54.23;;;19.60;;
13425;SDS011;6785;57.918;12.530;2022-08-19T01:45:15;83.17;;;21.47;;
13425;SDS011;6785;57.918;12.530;2022-08-19T01:47:42;42.00;;;17.30;;
13425;SDS011;6785;57.918;12.530;2022-08-19T01:50:10;22.23;;;16.83;;
13425;SDS011;6785;57.918;12.530;2022-08-19T01:52:38;23.10;;;16.77;;
13425;SDS011;6785;57.918;12.530;2022-08-19T01:55:07;26.10;;;17.20;;
13425;SDS011;6785;57.918;12.530;2022-08-19T01:57:37;47.07;;;18.00;;
13425;SDS011;6785;57.918;12.530;2022-08-19T02:00:10;17.57;;;15.13;;
13425;SDS011;6785;57.918;12.530;2022-08-19T02:02:40;21.23;;;15.77;;
13425;SDS011;6785;57.918;12.530;2022-08-19T02:05:07;20.87;;;16.03;;
13425;SDS011;6785;57.918;12.530;2022-08-19T02:07:34;32.73;;;18.10;;
13425;SDS011;6785;57.918;12.530;2022-08-19T02:10:02;26.33;;;16.70;;
13425;SDS011;6785;57.918;12.530;2022-08-19T02:12:30;75.90;;;19.70;;
13425;SDS011;6785;57.918;12.530;2022-08-19T02:14:58;41.77;;;17.40;;
13425;SDS011;6785;57.918;12.530;2022-08-19T02:17:26;72.23;;;20.23;;
13425;SDS011;6785;57.918;12.530;2022-08-19T02:19:53;168.60;;;24.93;;
13425;SDS011;6785;57.918;12.530;2022-08-19T02:22:20;38.00;;;19.20;;
13425;SDS011;6785;57.918;12.530;2022-08-19T02:24:47;32.07;;;18.27;;
13425;SDS011;6785;57.918;12.530;2022-08-19T02:27:14;27.67;;;18.17;;
13425;SDS011;6785;57.918;12.530;2022-08-19T02:29:41;35.47;;;18.20;;
13425;SDS011;6785;57.918;12.530;2022-08-19T02:32:10;35.30;;;17.60;;
13425;SDS011;6785;57.918;12.530;2022-08-19T02:34:37;42.83;;;19.00;;
13425;SDS011;6785;57.918;12.530;2022-08-19T02:37:05;84.33;;;20.93;;
13425;SDS011;6785;57.918;12.530;2022-08-19T02:39:51;40.73;;;18.70;;
13425;SDS011;6785;57.918;12.530;2022-08-19T02:42:17;38.97;;;18.60;;
13425;SDS011;6785;57.918;12.530;2022-08-19T02:44:44;98.30;;;21.37;;
13425;SDS011;6785;57.918;12.530;2022-08-19T02:47:12;39.47;;;16.87;;
13425;SDS011;6785;57.918;12.530;2022-08-19T02:49:40;51.57;;;17.47;;
13425;SDS011;6785;57.918;12.530;2022-08-19T02:52:07;83.47;;;20.13;;
13425;SDS011;6785;57.918;12.530;2022-08-19T02:54:34;47.57;;;17.53;;
13425;SDS011;6785;57.918;12.530;2022-08-19T02:57:01;29.57;;;17.57;;
13425;SDS011;6785;57.918;12.530;2022-08-19T02:59:29;29.33;;;17.17;;
13425;SDS011;6785;57.918;12.530;2022-08-19T03:01:56;33.73;;;17.80;;
13425;SDS011;6785;57.918;12.530;2022-08-19T03:04:24;86.73;;;21.00;;
13425;SDS011;6785;57.918;12.530;2022-08-19T03:06:51;37.73;;;18.40;;
13425;SDS011;6785;57.918;12.530;2022-08-19T03:09:19;36.33;;;18.90;;
13425;SDS011;6785;57.918;12.530;2022-08-19T03:11:46;44.43;;;18.63;;
13425;SDS011;6785;57.918;12.530;2022-08-19T03:14:13;68.03;;;20.10;;
13425;SDS011;6785;57.918;12.530;2022-08-19T03:16:41;33.23;;;18.40;;
13425;SDS011;6785;57.918;12.530;2022-08-19T03:19:09;53.70;;;19.20;;
13425;SDS011;6785;57.918;12.530;2022-08-19T03:21:37;70.23;;;17.47;;
13425;SDS011;6785;57.918;12.530;2022-08-19T03:24:05;83.73;;;19.97;;
13425;SDS011;6785;57.918;12.530;2022-08-19T03:26:33;76.90;;;20.37;;
13425;SDS011;6785;57.918;12.530;2022-08-19T03:29:06;60.40;;;20.83;;
13425;SDS011;6785;57.918;12.530;2022-08-19T03:31:35;65.20;;;19.17;;
13425;SDS011;6785;57.918;12.530;2022-08-19T03:34:01;77.73;;;19.80;;
13425;SDS011;6785;57.918;12.530;2022-08-19T03:36:28;57.23;;;16.93;;
13425;SDS011;6785;57.918;12.530;2022-08-19T03:38:57;57.03;;;16.57;;
13425;SDS011;6785;57.918;12.530;2022-08-19T03:41:26;38.40;;;16.10;;
13425;SDS011;6785;57.918;12.530;2022-08-19T03:43:55;43.53;;;16.10;;
13425;SDS011;6785;57.918;12.530;2022-08-19T03:46:23;40.57;;;16.27;;
13425;SDS011;6785;57.918;12.530;2022-08-19T03:48:52;33.20;;;16.73;;
13425;SDS011;6785;57.918;12.530;2022-08-19T03:51:21;33.10;;;16.40;;
13425;SDS011;6785;57.918;12.530;2022-08-19T03:53:59;59.63;;;16.63;;
13425;SDS011;6785;57.918;12.530;2022-08-19T03:56:28;60.67;;;16.17;;
13425;SDS011;6785;57.918;12.530;2022-08-19T03:58:56;25.00;;;16.00;;
13425;SDS011;6785;57.918;12.530;2022-08-19T04:01:26;58.57;;;15.77;;
13425;SDS011;6785;57.918;12.530;2022-08-19T04:03:54;26.17;;;11.53;;
13425;SDS011;6785;57.918;12.530;2022-08-19T04:06:23;42.70;;;14.97;;
13425;SDS011;6785;57.918;12.530;2022-08-19T04:08:52;34.53;;;16.30;;
13425;SDS011;6785;57.918;12.530;2022-08-19T04:11:24;40.03;;;14.43;;
13425;SDS011;6785;57.918;12.530;2022-08-19T04:13:53;53.03;;;15.10;;
13425;SDS011;6785;57.918;12.530;2022-08-19T04:16:22;36.83;;;16.23;;
13425;SDS011;6785;57.918;12.530;2022-08-19T04:18:54;23.33;;;16.33;;
13425;SDS011;6785;57.918;12.530;2022-08-19T04:21:23;94.63;;;19.37;;
13425;SDS011;6785;57.918;12.530;2022-08-19T04:23:51;41.00;;;18.00;;
13425;SDS011;6785;57.918;12.530;2022-08-19T04:26:20;35.57;;;19.33;;
13425;SDS011;6785;57.918;12.530;2022-08-19T04:28:51;49.20;;;19.27;;
13425;SDS011;6785;57.918;12.530;2022-08-19T04:31:20;27.07;;;17.37;;
13425;SDS011;6785;57.918;12.530;2022-08-19T04:33:50;29.00;;;16.50;;
13425;SDS011;6785;57.918;12.530;2022-08-19T04:36:18;23.80;;;16.23;;
13425;SDS011;6785;57.918;12.530;2022-08-19T04:38:49;38.20;;;14.60;;
13425;SDS011;6785;57.918;12.530;2022-08-19T04:41:19;28.10;;;16.20;;
13425;SDS011;6785;57.918;12.530;2022-08-19T04:44:05;60.10;;;15.23;;
13425;SDS011;6785;57.918;12.530;2022-08-19T04:46:32;60.27;;;14.37;;
13425;SDS011;6785;57.918;12.530;2022-08-19T04:49:00;30.83;;;14.30;;
13425;SDS011;6785;57.918;12.530;2022-08-19T04:51:35;22.27;;;14.13;;
13425;SDS011;6785;57.918;12.530;2022-08-19T04:54:02;46.37;;;13.80;;
13425;SDS011;6785;57.918;12.530;2022-08-19T04:56:29;21.10;;;11.60;;
13425;SDS011;6785;57.918;12.530;2022-08-19T04:58:57;15.60;;;13.13;;
13425;SDS011;6785;57.918;12.530;2022-08-19T05:01:29;25.67;;;12.90;;
13425;SDS011;6785;57.918;12.530;2022-08-19T05:03:57;27.27;;;13.63;;
13425;SDS011;6785;57.918;12.530;2022-08-19T05:06:25;33.93;;;13.67;;
13425;SDS011;6785;57.918;12.530;2022-08-19T05:08:53;19.40;;;13.47;;
13425;SDS011;6785;57.918;12.530;2022-08-19T05:11:22;38.53;;;15.17;;
13425;SDS011;6785;57.918;12.530;2022-08-19T05:13:50;22.07;;;13.03;;
13425;SDS011;6785;57.918;12.530;2022-08-19T05:16:18;30.57;;;13.30;;
13425;SDS011;6785;57.918;12.530;2022-08-19T05:18:47;19.50;;;12.73;;
13425;SDS011;6785;57.918;12.530;2022-08-19T05:21:32;14.20;;;12.73;;
13425;SDS011;6785;57.918;12.530;2022-08-19T05:24:17;20.43;;;12.97;;
13425;SDS011;6785;57.918;12.530;2022-08-19T05:26:46;18.43;;;12.93;;
13425;SDS011;6785;57.918;12.530;2022-08-19T05:29:15;17.07;;;12.50;;
13425;SDS011;6785;57.918;12.530;2022-08-19T05:31:47;15.40;;;13.63;;
13425;SDS011;6785;57.918;12.530;2022-08-19T05:34:16;23.80;;;13.67;;
13425;SDS011;6785;57.918;12.530;2022-08-19T05:36:46;18.70;;;13.77;;
13425;SDS011;6785;57.918;12.530;2022-08-19T05:39:16;19.73;;;13.87;;
13425;SDS011;6785;57.918;12.530;2022-08-19T05:41:45;39.93;;;14.17;;
13425;SDS011;6785;57.918;12.530;2022-08-19T05:44:14;15.83;;;13.77;;
13425;SDS011;6785;57.918;12.530;2022-08-19T05:46:42;119.37;;;17.47;;
13425;SDS011;6785;57.918;12.530;2022-08-19T05:49:12;16.93;;;13.60;;
13425;SDS011;6785;57.918;12.530;2022-08-19T05:51:41;14.93;;;13.43;;
13425;SDS011;6785;57.918;12.530;2022-08-19T05:54:09;14.33;;;12.83;;
13425;SDS011;6785;57.918;12.530;2022-08-19T05:56:38;24.30;;;13.23;;
13425;SDS011;6785;57.918;12.530;2022-08-19T05:59:06;36.20;;;13.03;;
13425;SDS011;6785;57.918;12.530;2022-08-19T06:01:34;19.77;;;12.03;;
13425;SDS011;6785;57.918;12.530;2022-08-19T06:04:02;26.00;;;13.03;;
13425;SDS011;6785;57.918;12.530;2022-08-19T06:06:30;17.73;;;11.87;;
13425;SDS011;6785;57.918;12.530;2022-08-19T06:09:00;17.93;;;12.60;;
13425;SDS011;6785;57.918;12.530;2022-08-19T06:11:32;17.20;;;11.43;;
13425;SDS011;6785;57.918;12.530;2022-08-19T06:14:02;19.23;;;11.77;;
13425;SDS011;6785;57.918;12.530;2022-08-19T06:16:33;11.70;;;10.50;;
13425;SDS011;6785;57.918;12.530;2022-08-19T06:19:01;12.27;;;11.07;;
13425;SDS011;6785;57.918;12.530;2022-08-19T06:21:31;19.77;;;11.27;;
13425;SDS011;6785;57.918;12.530;2022-08-19T06:23:58;16.63;;;10.87;;
13425;SDS011;6785;57.918;12.530;2022-08-19T06:26:27;14.70;;;11.17;;
13425;SDS011;6785;57.918;12.530;2022-08-19T06:28:54;24.87;;;12.17;;
13425;SDS011;6785;57.918;12.530;2022-08-19T06:31:22;12.97;;;11.67;;
13425;SDS011;6785;57.918;12.530;2022-08-19T06:33:50;17.47;;;11.27;;
13425;SDS011;6785;57.918;12.530;2022-08-19T06:36:18;30.93;;;12.33;;
13425;SDS011;6785;57.918;12.530;2022-08-19T06:38:46;15.13;;;11.90;;
13425;SDS011;6785;57.918;12.530;2022-08-19T06:41:15;21.63;;;12.00;;
13425;SDS011;6785;57.918;12.530;2022-08-19T06:43:41;31.23;;;12.17;;
13425;SDS011;6785;57.918;12.530;2022-08-19T06:46:09;15.43;;;11.00;;
13425;SDS011;6785;57.918;12.530;2022-08-19T06:48:38;13.80;;;10.70;;
13425;SDS011;6785;57.918;12.530;2022-08-19T06:51:05;16.63;;;11.10;;
13425;SDS011;6785;57.918;12.530;2022-08-19T06:53:33;19.67;;;11.47;;
13425;SDS011;6785;57.918;12.530;2022-08-19T06:56:00;14.50;;;11.00;;
13425;SDS011;6785;57.918;12.530;2022-08-19T06:58:29;15.13;;;12.07;;
13425;SDS011;6785;57.918;12.530;2022-08-19T07:00:58;19.10;;;11.93;;
13425;SDS011;6785;57.918;12.530;2022-08-19T07:03:28;24.50;;;11.57;;
13425;SDS011;6785;57.918;12.530;2022-08-19T07:05:56;19.93;;;11.83;;
13425;SDS011;6785;57.918;12.530;2022-08-19T07:08:24;22.03;;;12.70;;
13425;SDS011;6785;57.918;12.530;2022-08-19T07:10:52;13.43;;;12.00;;
13425;SDS011;6785;57.918;12.530;2022-08-19T07:13:19;13.50;;;12.20;;
13425;SDS011;6785;57.918;12.530;2022-08-19T07:15:49;17.17;;;13.43;;
13425;SDS011;6785;57.918;12.530;2022-08-19T07:18:17;14.10;;;12.67;;
13425;SDS011;6785;57.918;12.530;2022-08-19T07:20:44;14.80;;;13.03;;
13425;SDS011;6785;57.918;12.530;2022-08-19T07:23:11;13.70;;;12.40;;
13425;SDS011;6785;57.918;12.530;2022-08-19T07:25:38;13.20;;;12.00;;
13425;SDS011;6785;57.918;12.530;2022-08-19T07:28:06;12.80;;;11.50;;
13425;SDS011;6785;57.918;12.530;2022-08-19T07:30:36;13.13;;;11.83;;
13425;SDS011;6785;57.918;12.530;2022-08-19T07:33:07;13.20;;;11.93;;
13425;SDS011;6785;57.918;12.530;2022-08-19T07:35:33;12.90;;;11.70;;
13425;SDS011;6785;57.918;12.530;2022-08-19T07:38:00;12.47;;;11.27;;
13425;SDS011;6785;57.918;12.530;2022-08-19T07:40:29;13.23;;;11.83;;
13425;SDS011;6785;57.918;12.530;2022-08-19T07:42:56;13.73;;;12.30;;
13425;SDS011;6785;57.918;12.530;2022-08-19T07:45:23;12.80;;;11.60;;
13425;SDS011;6785;57.918;12.530;2022-08-19T07:47:50;12.90;;;11.70;;
13425;SDS011;6785;57.918;12.530;2022-08-19T07:50:19;13.97;;;12.30;;
13425;SDS011;6785;57.918;12.530;2022-08-19T07:52:48;12.83;;;11.63;;
13425;SDS011;6785;57.918;12.530;2022-08-19T07:55:16;13.30;;;12.10;;
13425;SDS011;6785;57.918;12.530;2022-08-19T07:57:46;13.97;;;12.67;;
13425;SDS011;6785;57.918;12.530;2022-08-19T08:00:13;13.70;;;12.40;;
13425;SDS011;6785;57.918;12.530;2022-08-19T08:02:41;14.20;;;12.83;;
13425;SDS011;6785;57.918;12.530;2022-08-19T08:05:08;13.73;;;12.43;;
13425;SDS011;6785;57.918;12.530;2022-08-19T08:07:54;13.30;;;12.10;;
13425;SDS011;6785;57.918;12.530;2022-08-19T08:10:39;13.03;;;11.83;;
13425;SDS011;6785;57.918;12.530;2022-08-19T08:13:06;13.90;;;12.50;;
13425;SDS011;6785;57.918;12.530;2022-08-19T08:15:33;13.07;;;11.53;;
13425;SDS011;6785;57.918;12.530;2022-08-19T08:18:02;13.00;;;11.57;;
13425;SDS011;6785;57.918;12.530;2022-08-19T08:20:29;12.93;;;11.73;;
13425;SDS011;6785;57.918;12.530;2022-08-19T08:22:57;13.00;;;11.80;;
13425;SDS011;6785;57.918;12.530;2022-08-19T08:25:41;12.83;;;11.63;;
13425;SDS011;6785;57.918;12.530;2022-08-19T08:28:08;13.53;;;12.27;;
13425;SDS011;6785;57.918;12.530;2022-08-19T08:30:35;12.23;;;11.20;;
13425;SDS011;6785;57.918;12.530;2022-08-19T08:33:06;13.13;;;11.93;;
13425;SDS011;6785;57.918;12.530;2022-08-19T08:35:33;13.23;;;11.83;;
13425;SDS011;6785;57.918;12.530;2022-08-19T08:38:01;13.30;;;12.10;;
13425;SDS011;6785;57.918;12.530;2022-08-19T08:40:38;14.03;;;12.70;;
13425;SDS011;6785;57.918;12.530;2022-08-19T08:43:11;12.52;;;11.32;;
13425;SDS011;6785;57.918;12.530;2022-08-19T08:45:49;13.07;;;11.77;;
13425;SDS011;6785;57.918;12.530;2022-08-19T08:48:20;12.45;;;11.13;;
13425;SDS011;6785;57.918;12.530;2022-08-19T08:50:50;12.40;;;11.20;;
13425;SDS011;6785;57.918;12.530;2022-08-19T08:53:22;12.93;;;11.73;;
13425;SDS011;6785;57.918;12.530;2022-08-19T08:55:50;12.87;;;11.57;;
13425;SDS011;6785;57.918;12.530;2022-08-19T08:58:17;12.07;;;11.03;;
13425;SDS011;6785;57.918;12.530;2022-08-19T09:00:52;12.73;;;11.43;;
13425;SDS011;6785;57.918;12.530;2022-08-19T09:03:20;12.00;;;11.00;;
13425;SDS011;6785;57.918;12.530;2022-08-19T09:05:50;13.80;;;12.47;;
13425;SDS011;6785;57.918;12.530;2022-08-19T09:08:28;12.05;;;10.85;;
13425;SDS011;6785;57.918;12.530;2022-08-19T09:11:04;12.80;;;11.27;;
13425;SDS011;6785;57.918;12.530;2022-08-19T09:13:36;12.50;;;10.67;;
13425;SDS011;6785;57.918;12.530;2022-08-19T09:16:12;12.50;;;11.40;;
13425;SDS011;6785;57.918;12.530;2022-08-19T09:18:44;17.63;;;11.05;;
13425;SDS011;6785;57.918;12.530;2022-08-19T09:21:13;12.90;;;10.40;;
13425;SDS011;6785;57.918;12.530;2022-08-19T09:23:43;14.88;;;10.65;;
13425;SDS011;6785;57.918;12.530;2022-08-19T09:26:11;9.95;;;9.07;;
13425;SDS011;6785;57.918;12.530;2022-08-19T09:28:39;11.27;;;10.27;;
13425;SDS011;6785;57.918;12.530;2022-08-19T09:31:08;11.02;;;10.02;;
13425;SDS011;6785;57.918;12.530;2022-08-19T09:33:36;12.20;;;10.48;;
13425;SDS011;6785;57.918;12.530;2022-08-19T09:36:05;11.45;;;10.35;;
13425;SDS011;6785;57.918;12.530;2022-08-19T09:38:33;11.05;;;10.05;;
13425;SDS011;6785;57.918;12.530;2022-08-19T09:41:03;12.95;;;10.48;;
13425;SDS011;6785;57.918;12.530;2022-08-19T09:43:34;12.70;;;11.48;;
13425;SDS011;6785;57.918;12.530;2022-08-19T09:46:02;14.88;;;11.15;;
13425;SDS011;6785;57.918;12.530;2022-08-19T09:48:31;13.38;;;10.60;;
13425;SDS011;6785;57.918;12.530;2022-08-19T09:51:02;12.43;;;11.00;;
13425;SDS011;6785;57.918;12.530;2022-08-19T09:53:29;12.20;;;11.00;;
13425;SDS011;6785;57.918;12.530;2022-08-19T09:55:56;11.35;;;10.25;;
13425;SDS011;6785;57.918;12.530;2022-08-19T09:58:25;13.40;;;10.77;;
13425;SDS011;6785;57.918;12.530;2022-08-19T10:00:52;11.60;;;10.55;;
13425;SDS011;6785;57.918;12.530;2022-08-19T10:03:19;13.85;;;11.43;;
13425;SDS011;6785;57.918;12.530;2022-08-19T10:05:46;14.02;;;11.20;;
13425;SDS011;6785;57.918;12.530;2022-08-19T10:08:17;14.57;;;12.85;;
13425;SDS011;6785;57.918;12.530;2022-08-19T10:10:46;12.63;;;11.45;;
13425;SDS011;6785;57.918;12.530;2022-08-19T10:13:14;13.02;;;11.60;;
13425;SDS011;6785;57.918;12.530;2022-08-19T10:15:56;13.18;;;11.93;;
13425;SDS011;6785;57.918;12.530;2022-08-19T10:18:32;12.02;;;10.93;;
13425;SDS011;6785;57.918;12.530;2022-08-19T10:21:05;12.60;;;11.30;;
13425;SDS011;6785;57.918;12.530;2022-08-19T10:23:42;12.98;;;11.88;;
13425;SDS011;6785;57.918;12.530;2022-08-19T10:26:12;13.82;;;12.45;;
13425;SDS011;6785;57.918;12.530;2022-08-19T10:28:40;15.27;;;12.52;;
13425;SDS011;6785;57.918;12.530;2022-08-19T10:31:09;12.18;;;11.05;;
13425;SDS011;6785;57.918;12.530;2022-08-19T10:33:38;12.30;;;10.40;;
13425;SDS011;6785;57.918;12.530;2022-08-19T10:36:07;12.15;;;10.35;;
13425;SDS011;6785;57.918;12.530;2022-08-19T10:38:35;12.10;;;10.65;;
13425;SDS011;6785;57.918;12.530;2022-08-19T10:41:06;12.48;;;11.23;;
13425;SDS011;6785;57.918;12.530;2022-08-19T10:43:34;14.20;;;12.07;;
13425;SDS011;6785;57.918;12.530;2022-08-19T10:46:03;13.30;;;11.88;;
13425;SDS011;6785;57.918;12.530;2022-08-19T10:48:32;12.40;;;11.20;;
13425;SDS011;6785;57.918;12.530;2022-08-19T10:51:00;13.13;;;11.38;;
13425;SDS011;6785;57.918;12.530;2022-08-19T10:53:44;13.00;;;10.73;;
13425;SDS011;6785;57.918;12.530;2022-08-19T10:56:11;15.98;;;11.43;;
13425;SDS011;6785;57.918;12.530;2022-08-19T10:58:56;11.32;;;10.32;;
13425;SDS011;6785;57.918;12.530;2022-08-19T11:01:23;14.52;;;11.55;;
13425;SDS011;6785;57.918;12.530;2022-08-19T11:03:56;13.23;;;11.07;;
13425;SDS011;6785;57.918;12.530;2022-08-19T11:06:23;12.35;;;10.90;;
13425;SDS011;6785;57.918;12.530;2022-08-19T11:08:51;12.27;;;11.07;;
13425;SDS011;6785;57.918;12.530;2022-08-19T11:11:20;12.73;;;11.32;;
13425;SDS011;6785;57.918;12.530;2022-08-19T11:13:47;11.40;;;10.40;;
13425;SDS011;6785;57.918;12.530;2022-08-19T11:16:16;12.40;;;11.20;;
13425;SDS011;6785;57.918;12.530;2022-08-19T11:18:45;12.23;;;11.05;;
13425;SDS011;6785;57.918;12.530;2022-08-19T11:21:16;12.07;;;10.60;;
13425;SDS011;6785;57.918;12.530;2022-08-19T11:23:45;11.80;;;10.60;;
13425;SDS011;6785;57.918;12.530;2022-08-19T11:26:14;12.77;;;11.32;;
13425;SDS011;6785;57.918;12.530;2022-08-19T11:28:41;11.75;;;10.65;;
13425;SDS011;6785;57.918;12.530;2022-08-19T11:31:10;15.63;;;11.82;;
13425;SDS011;6785;57.918;12.530;2022-08-19T11:33:38;14.30;;;11.80;;
13425;SDS011;6785;57.918;12.530;2022-08-19T11:36:05;12.98;;;11.35;;
13425;SDS011;6785;57.918;12.530;2022-08-19T11:38:34;12.77;;;11.60;;
13425;SDS011;6785;57.918;12.530;2022-08-19T11:41:02;12.95;;;11.52;;
13425;SDS011;6785;57.918;12.530;2022-08-19T11:46:25;13.05;;;11.55;;
13425;SDS011;6785;57.918;12.530;2022-08-19T11:48:54;12.60;;;11.18;;
13425;SDS011;6785;57.918;12.530;2022-08-19T11:51:22;12.75;;;10.43;;
13425;SDS011;6785;57.918;12.530;2022-08-19T11:53:52;11.77;;;10.77;;
13425;SDS011;6785;57.918;12.530;2022-08-19T11:56:19;15.05;;;11.65;;
13425;SDS011;6785;57.918;12.530;2022-08-19T11:58:47;12.98;;;11.65;;
13425;SDS011;6785;57.918;12.530;2022-08-19T12:01:15;13.00;;;11.68;;
13425;SDS011;6785;57.918;12.530;2022-08-19T12:04:02;14.57;;;11.93;;
13425;SDS011;6785;57.918;12.530;2022-08-19T12:06:31;12.88;;;11.50;;
13425;SDS011;6785;57.918;12.530;2022-08-19T12:09:02;12.70;;;11.50;;
13425;SDS011;6785;57.918;12.530;2022-08-19T12:11:31;13.27;;;11.90;;
13425;SDS011;6785;57.918;12.530;2022-08-19T12:13:58;14.00;;;12.40;;
13425;SDS011;6785;57.918;12.530;2022-08-19T12:16:26;14.82;;;12.60;;
13425;SDS011;6785;57.918;12.530;2022-08-19T12:18:54;15.13;;;12.40;;
13425;SDS011;6785;57.918;12.530;2022-08-19T12:21:23;12.45;;;11.25;;
13425;SDS011;6785;57.918;12.530;2022-08-19T12:23:53;13.85;;;12.30;;
13425;SDS011;6785;57.918;12.530;2022-08-19T12:26:22;13.80;;;12.18;;
13425;SDS011;6785;57.918;12.530;2022-08-19T12:28:50;12.18;;;11.07;;
13425;SDS011;6785;57.918;12.530;2022-08-19T12:31:17;13.60;;;12.15;;
13425;SDS011;6785;57.918;12.530;2022-08-19T12:33:46;13.68;;;12.32;;
13425;SDS011;6785;57.918;12.530;2022-08-19T12:36:14;13.10;;;11.90;;
13425;SDS011;6785;57.918;12.530;2022-08-19T12:38:44;15.05;;;11.38;;
13425;SDS011;6785;57.918;12.530;2022-08-19T12:41:12;13.50;;;12.25;;
13425;SDS011;6785;57.918;12.530;2022-08-19T12:43:41;14.02;;;12.07;;
13425;SDS011;6785;57.918;12.530;2022-08-19T12:46:09;14.00;;;12.20;;
13425;SDS011;6785;57.918;12.530;2022-08-19T12:48:38;12.95;;;11.35;;
13425;SDS011;6785;57.918;12.530;2022-08-19T12:51:12;12.63;;;11.30;;
13425;SDS011;6785;57.918;12.530;2022-08-19T12:53:41;17.33;;;11.75;;
13425;SDS011;6785;57.918;12.530;2022-08-19T12:56:09;13.32;;;11.23;;
13425;SDS011;6785;57.918;12.530;2022-08-19T12:58:37;14.80;;;11.48;;
13425;SDS011;6785;57.918;12.530;2022-08-19T13:01:08;13.02;;;11.48;;
13425;SDS011;6785;57.918;12.530;2022-08-19T13:03:37;12.70;;;11.40;;
13425;SDS011;6785;57.918;12.530;2022-08-19T13:06:04;12.60;;;11.40;;
13425;SDS011;6785;57.918;12.530;2022-08-19T13:08:31;12.80;;;11.57;;
13425;SDS011;6785;57.918;12.530;2022-08-19T13:11:00;12.75;;;11.20;;
13425;SDS011;6785;57.918;12.530;2022-08-19T13:13:33;14.88;;;12.68;;
13425;SDS011;6785;57.918;12.530;2022-08-19T13:16:00;12.98;;;11.80;;
13425;SDS011;6785;57.918;12.530;2022-08-19T13:18:29;13.43;;;11.98;;
13425;SDS011;6785;57.918;12.530;2022-08-19T13:20:56;14.70;;;11.38;;
13425;SDS011;6785;57.918;12.530;2022-08-19T13:23:28;15.85;;;12.05;;
13425;SDS011;6785;57.918;12.530;2022-08-19T13:25:56;12.75;;;11.40;;
13425;SDS011;6785;57.918;12.530;2022-08-19T13:28:23;16.40;;;11.15;;
13425;SDS011;6785;57.918;12.530;2022-08-19T13:30:50;12.75;;;11.65;;
13425;SDS011;6785;57.918;12.530;2022-08-19T13:33:36;13.75;;;11.77;;
13425;SDS011;6785;57.918;12.530;2022-08-19T13:36:03;12.68;;;11.48;;
13425;SDS011;6785;57.918;12.530;2022-08-19T13:38:38;15.02;;;11.93;;
13425;SDS011;6785;57.918;12.530;2022-08-19T13:41:05;12.52;;;11.23;;
13425;SDS011;6785;57.918;12.530;2022-08-19T13:43:33;11.90;;;10.80;;
13425;SDS011;6785;57.918;12.530;2022-08-19T13:45:59;12.88;;;11.60;;
13425;SDS011;6785;57.918;12.530;2022-08-19T13:48:34;14.65;;;11.27;;
13425;SDS011;6785;57.918;12.530;2022-08-19T13:51:04;12.35;;;11.05;;
13425;SDS011;6785;57.918;12.530;2022-08-19T13:53:31;12.95;;;11.68;;
13425;SDS011;6785;57.918;12.530;2022-08-19T13:55:58;15.27;;;12.07;;
13425;SDS011;6785;57.918;12.530;2022-08-19T13:58:25;12.70;;;11.50;;
13425;SDS011;6785;57.918;12.530;2022-08-19T14:00:52;13.57;;;9.77;;
13425;SDS011;6785;57.918;12.530;2022-08-19T14:03:19;13.45;;;12.15;;
13425;SDS011;6785;57.918;12.530;2022-08-19T14:05:46;12.25;;;11.05;;
13425;SDS011;6785;57.918;12.530;2022-08-19T14:08:14;15.30;;;11.70;;
13425;SDS011;6785;57.918;12.530;2022-08-19T14:10:41;12.57;;;11.23;;
13425;SDS011;6785;57.918;12.530;2022-08-19T14:13:28;12.77;;;11.38;;
13425;SDS011;6785;57.918;12.530;2022-08-19T14:15:55;12.35;;;11.05;;
13425;SDS011;6785;57.918;12.530;2022-08-19T14:18:23;14.05;;;11.95;;
13425;SDS011;6785;57.918;12.530;2022-08-19T14:20:50;12.07;;;10.98;;
13425;SDS011;6785;57.918;12.530;2022-08-19T14:23:18;12.82;;;11.13;;
13425;SDS011;6785;57.918;12.530;2022-08-19T14:25:45;11.30;;;10.18;;
13425;SDS011;6785;57.918;12.530;2022-08-19T14:28:12;12.35;;;11.07;;
13425;SDS011;6785;57.918;12.530;2022-08-19T14:30:39;12.35;;;10.95;;
13425;SDS011;6785;57.918;12.530;2022-08-19T14:33:06;12.82;;;11.35;;
13425;SDS011;6785;57.918;12.530;2022-08-19T14:35:34;11.40;;;10.40;;